createdAt,value
2024-01-20T00:00:33.307Z,8.750
2024-01-20T00:01:46.426Z,9.000
2024-01-20T00:02:31.228Z,8.200
2024-01-20T00:03:24.465Z,8.300
2024-01-20T00:04:26.114Z,8.700
2024-01-20T00:05:36.176Z,8.800
2024-01-20T00:06:32.131Z,8.650
2024-01-20T00:07:27.478Z,8.900
2024-01-20T00:08:43.287Z,8.800
2024-01-20T00:09:34.779Z,9.700
2024-01-20T00:10:26.458Z,9.200
2024-01-20T00:12:30.201Z,9.050
2024-01-20T00:13:45.642Z,8.950
2024-01-20T00:14:59.925Z,10.000
2024-01-20T00:15:09.151Z,9.400
2024-01-20T00:16:29.534Z,9.200
2024-01-20T00:17:28.563Z,9.550
2024-01-20T00:18:35.908Z,9.100
2024-01-20T00:19:29.010Z,10.000
2024-01-20T00:20:23.218Z,9.850
2024-01-20T00:21:34.906Z,9.800
2024-01-20T00:22:27.302Z,9.700
2024-01-20T00:23:29.822Z,8.950
2024-01-20T00:24:22.970Z,9.800
2024-01-20T00:25:31.923Z,9.700
2024-01-20T00:26:31.855Z,9.800
2024-01-20T00:27:23.374Z,9.200
2024-01-20T00:28:32.817Z,9.100
2024-01-20T00:29:45.196Z,8.750
2024-01-20T00:30:24.516Z,9.200
2024-01-20T00:31:21.118Z,9.250
2024-01-20T00:32:30.950Z,9.100
2024-01-20T00:33:27.400Z,9.100
2024-01-20T00:34:26.907Z,8.900
2024-01-20T00:35:32.765Z,8.750
2024-01-20T00:36:33.899Z,9.500
2024-01-20T00:37:29.137Z,8.600
2024-01-20T00:38:21.204Z,8.400
2024-01-20T00:39:30.928Z,8.500
2024-01-20T00:40:27.965Z,8.850
2024-01-20T00:41:23.100Z,8.650
2024-01-20T00:42:24.431Z,9.350
2024-01-20T00:43:30.369Z,8.700
2024-01-20T00:44:24.843Z,9.450
2024-01-20T00:45:24.202Z,9.500
2024-01-20T00:46:32.275Z,9.400
2024-01-20T00:47:26.915Z,9.300
2024-01-20T00:48:24.843Z,9.050
2024-01-20T00:49:30.640Z,9.400
2024-01-20T00:50:20.051Z,9.500
2024-01-20T00:51:27.253Z,9.500
2024-01-20T00:52:21.035Z,9.800
2024-01-20T00:53:22.799Z,9.850
2024-01-20T00:54:27.937Z,10.650
2024-01-20T00:55:23.490Z,10.400
2024-01-20T00:56:31.730Z,10.600
2024-01-20T00:57:23.560Z,10.000
2024-01-20T00:58:25.612Z,9.600
2024-01-20T00:59:21.030Z,9.950
2024-01-20T01:00:25.962Z,9.550
2024-01-20T01:01:28.311Z,9.600
2024-01-20T01:02:22.780Z,10.000
2024-01-20T01:03:34.815Z,10.350
2024-01-20T01:04:31.549Z,10.200
2024-01-20T01:05:20.662Z,10.100
2024-01-20T01:06:21.166Z,10.200
2024-01-20T01:07:34.023Z,9.700
2024-01-20T01:08:22.041Z,10.100
2024-01-20T01:09:22.918Z,9.950
2024-01-20T01:10:33.713Z,10.000
2024-01-20T01:11:32.728Z,9.900
2024-01-20T01:12:25.290Z,10.900
2024-01-20T01:13:22.302Z,11.000
2024-01-20T01:14:35.703Z,10.550
2024-01-20T01:15:30.688Z,11.250
2024-01-20T01:16:19.950Z,10.800
2024-01-20T01:17:33.028Z,10.100
2024-01-20T01:18:29.602Z,10.850
2024-01-20T01:19:25.105Z,10.150
2024-01-20T01:20:21.920Z,10.300
2024-01-20T01:21:31.084Z,9.500
2024-01-20T01:22:32.697Z,9.850
2024-01-20T01:23:23.380Z,9.750
2024-01-20T01:24:32.876Z,10.300
2024-01-20T01:25:29.523Z,9.800
2024-01-20T01:26:26.990Z,9.900
2024-01-20T01:27:21.415Z,10.100
2024-01-20T01:28:43.042Z,10.500
2024-01-20T01:29:27.496Z,10.800
2024-01-20T01:30:23.229Z,9.850
2024-01-20T01:31:21.271Z,10.250
2024-01-20T01:32:31.164Z,10.300
2024-01-20T01:33:25.392Z,10.050
2024-01-20T01:34:23.051Z,9.600
2024-01-20T01:35:23.380Z,10.200
2024-01-20T01:36:43.773Z,10.400
2024-01-20T01:37:24.762Z,10.600
2024-01-20T01:38:25.039Z,10.400
2024-01-20T01:39:31.586Z,10.900
2024-01-20T01:40:25.822Z,10.850
2024-01-20T01:41:23.122Z,10.900
2024-01-20T01:42:26.647Z,10.250
2024-01-20T01:43:20.962Z,10.000
2024-01-20T01:44:26.890Z,10.300
2024-01-20T01:45:34.471Z,10.500
2024-01-20T01:46:22.593Z,10.300
2024-01-20T01:47:25.111Z,10.600
2024-01-20T01:48:23.281Z,9.650
2024-01-20T01:49:31.808Z,9.900
2024-01-20T01:50:24.948Z,9.500
2024-01-20T01:51:23.912Z,9.800
2024-01-20T01:52:33.969Z,9.800
2024-01-20T01:53:28.647Z,10.100
2024-01-20T01:54:19.160Z,9.750
2024-01-20T01:55:22.064Z,9.700
2024-01-20T01:56:35.957Z,10.650
2024-01-20T01:57:27.911Z,10.300
2024-01-20T01:58:25.047Z,10.300
2024-01-20T01:59:38.498Z,10.550
2024-01-20T02:00:36.100Z,10.100
2024-01-20T02:01:36.196Z,10.500
2024-01-20T02:02:29.494Z,10.600
2024-01-20T02:03:44.038Z,10.500
2024-01-20T02:04:44.014Z,10.100
2024-01-20T02:16:32.284Z,10.800
2024-01-20T02:17:52.761Z,11.400
2024-01-20T02:18:36.009Z,11.450
2024-01-20T02:19:32.647Z,11.500
2024-01-20T02:20:32.131Z,11.350
2024-01-20T02:22:32.151Z,11.300
2024-01-20T02:24:06.102Z,10.800
2024-01-20T02:24:27.576Z,11.200
2024-01-20T02:24:33.479Z,10.300
2024-01-20T02:26:27.273Z,11.200
2024-01-20T02:33:27.034Z,11.500
2024-01-20T02:34:22.034Z,12.000
2024-01-20T02:35:33.316Z,11.600
2024-01-20T02:36:21.831Z,11.700
2024-01-20T02:37:23.228Z,11.500
2024-01-20T02:38:31.186Z,11.100
2024-01-20T02:39:25.666Z,11.200
2024-01-20T02:40:23.249Z,11.050
2024-01-20T02:41:19.380Z,11.000
2024-01-20T02:42:32.451Z,11.300
2024-01-20T02:43:23.811Z,11.700
2024-01-20T02:44:23.007Z,11.100
2024-01-20T02:45:35.806Z,11.050
2024-01-20T02:46:28.200Z,10.800
2024-01-20T02:47:24.198Z,11.150
2024-01-20T02:48:19.688Z,12.300
2024-01-20T02:49:36.888Z,11.750
2024-01-20T02:50:27.638Z,12.000
2024-01-20T02:51:21.355Z,12.100
2024-01-20T02:52:38.764Z,11.500
2024-01-20T02:53:28.757Z,10.800
2024-01-20T02:54:25.552Z,10.550
2024-01-20T02:55:21.267Z,12.000
2024-01-20T02:56:33.920Z,11.500
2024-01-20T02:57:25.888Z,11.250
2024-01-20T02:58:22.938Z,11.300
2024-01-20T02:59:47.050Z,11.250
2024-01-20T03:00:29.587Z,10.900
2024-01-20T03:01:23.222Z,11.200
2024-01-20T03:02:20.300Z,11.000
2024-01-20T03:03:33.402Z,12.100
2024-01-20T03:04:26.162Z,11.100
2024-01-20T03:05:33.802Z,11.850
2024-01-20T03:06:21.963Z,11.550
2024-01-20T03:07:28.605Z,12.400
2024-01-20T03:08:22.967Z,11.400
2024-01-20T03:09:19.278Z,11.250
2024-01-20T03:10:19.423Z,11.500
2024-01-20T03:11:25.396Z,11.400
2024-01-20T03:12:21.035Z,11.300
2024-01-20T03:13:27.232Z,11.300
2024-01-20T03:14:28.513Z,12.000
2024-01-20T03:15:23.632Z,11.200
2024-01-20T03:16:34.322Z,11.900
2024-01-20T03:17:23.517Z,12.100
2024-01-20T03:18:28.992Z,10.950
2024-01-20T03:19:23.530Z,11.600
2024-01-20T03:20:30.887Z,11.450
2024-01-20T03:21:22.640Z,11.400
2024-01-20T03:22:24.501Z,10.850
2024-01-20T03:23:19.420Z,11.200
2024-01-20T03:24:31.919Z,10.600
2024-01-20T03:25:23.205Z,10.300
2024-01-20T03:26:22.909Z,11.400
2024-01-20T03:27:36.406Z,11.850
2024-01-20T03:28:27.385Z,12.300
2024-01-20T03:29:19.624Z,11.950
2024-01-20T03:30:19.472Z,12.400
2024-01-20T03:31:34.081Z,12.450
2024-01-20T03:32:25.353Z,12.000
2024-01-20T03:33:22.280Z,11.400
2024-01-20T03:34:37.477Z,11.800
2024-01-20T03:35:29.130Z,12.350
2024-01-20T03:36:25.506Z,12.400
2024-01-20T03:37:19.575Z,12.400
2024-01-20T03:38:33.119Z,12.150
2024-01-20T03:39:25.176Z,12.150
2024-01-20T03:40:23.878Z,12.200
2024-01-20T03:41:42.636Z,12.250
2024-01-20T03:42:27.321Z,11.500
2024-01-20T03:43:23.330Z,11.950
2024-01-20T03:44:20.750Z,11.600
2024-01-20T03:45:33.327Z,12.050
2024-01-20T03:46:25.121Z,12.400
2024-01-20T03:47:22.867Z,12.100
2024-01-20T03:48:19.510Z,12.200
2024-01-20T03:49:41.361Z,11.300
2024-01-20T03:50:24.423Z,11.300
2024-01-20T03:51:19.488Z,11.650
2024-01-20T03:52:31.639Z,12.100
2024-01-20T03:53:25.202Z,12.150
2024-01-20T03:54:22.867Z,12.300
2024-01-20T03:55:24.321Z,12.000
2024-01-20T03:56:27.556Z,12.100
2024-01-20T03:57:23.511Z,12.550
2024-01-20T03:58:22.875Z,12.800
2024-01-20T03:59:22.725Z,12.600
2024-01-20T04:00:25.660Z,13.300
2024-01-20T04:01:21.258Z,12.600
2024-01-20T04:02:27.758Z,12.600
2024-01-20T04:03:21.309Z,12.050
2024-01-20T04:04:23.926Z,12.200
2024-01-20T04:05:19.357Z,12.900
2024-01-20T04:06:26.091Z,12.650
2024-01-20T04:07:25.537Z,11.600
2024-01-20T04:08:22.902Z,12.400
2024-01-20T04:09:32.441Z,12.300
2024-01-20T04:10:28.797Z,11.600
2024-01-20T04:11:25.973Z,11.900
2024-01-20T04:12:19.464Z,12.500
2024-01-20T04:13:31.521Z,12.600
2024-01-20T04:14:25.708Z,12.700
2024-01-20T04:15:22.802Z,11.950
2024-01-20T04:16:36.543Z,12.200
2024-01-20T04:17:33.730Z,12.000
2024-01-20T04:18:23.537Z,12.300
2024-01-20T04:19:21.406Z,11.450
2024-01-20T04:20:35.294Z,12.050
2024-01-20T04:21:26.458Z,11.600
2024-01-20T04:22:21.441Z,12.200
2024-01-20T04:23:40.650Z,12.200
2024-01-20T04:24:28.534Z,12.000
2024-01-20T04:25:23.445Z,11.450
2024-01-20T04:26:19.732Z,12.500
2024-01-20T04:27:31.480Z,12.400
2024-01-20T04:28:25.571Z,12.200
2024-01-20T04:29:25.201Z,12.050
2024-01-20T04:30:46.606Z,12.250
2024-01-20T04:31:28.517Z,12.500
2024-01-20T04:32:23.341Z,12.050
2024-01-20T04:33:22.402Z,11.800
2024-01-20T04:34:30.321Z,12.150
2024-01-20T04:35:25.332Z,11.200
2024-01-20T04:36:22.774Z,11.800
2024-01-20T04:37:21.788Z,11.500
2024-01-20T04:38:31.720Z,11.250
2024-01-20T04:39:23.548Z,12.100
2024-01-20T04:40:19.797Z,12.050
2024-01-20T04:41:21.280Z,12.550
2024-01-20T04:42:27.348Z,11.500
2024-01-20T04:43:21.760Z,12.100
2024-01-20T04:44:25.720Z,11.800
2024-01-20T04:45:28.141Z,11.900
2024-01-20T04:46:25.579Z,11.900
2024-01-20T04:47:19.378Z,12.100
2024-01-20T04:48:27.390Z,11.800
2024-01-20T04:49:25.278Z,12.450
2024-01-20T04:50:21.197Z,12.000
2024-01-20T04:51:32.890Z,12.100
2024-01-20T04:52:21.373Z,12.800
2024-01-20T04:53:24.527Z,12.500
2024-01-20T04:54:19.418Z,11.400
2024-01-20T04:55:44.242Z,11.550
2024-01-20T04:56:24.317Z,11.800
2024-01-20T04:57:21.257Z,12.550
2024-01-20T04:58:33.025Z,11.800
2024-01-20T04:59:32.433Z,12.200
2024-01-20T05:00:23.823Z,11.500
2024-01-20T05:01:21.498Z,11.650
2024-01-20T05:02:30.157Z,11.650
2024-01-20T05:03:28.487Z,11.800
2024-01-20T05:04:21.505Z,11.800
2024-01-20T05:05:36.710Z,11.700
2024-01-20T05:06:32.969Z,12.100
2024-01-20T05:07:23.801Z,11.800
2024-01-20T05:08:20.160Z,11.650
2024-01-20T05:09:33.749Z,11.900
2024-01-20T05:10:28.183Z,12.750
2024-01-20T05:11:24.766Z,12.200
2024-01-20T05:12:41.981Z,12.500
2024-01-20T05:13:27.585Z,11.300
2024-01-20T05:14:28.427Z,12.000
2024-01-20T05:15:19.452Z,12.100
2024-01-20T05:16:34.422Z,12.300
2024-01-20T05:17:26.577Z,11.600
2024-01-20T05:18:23.278Z,12.050
2024-01-20T05:19:22.204Z,11.800
2024-01-20T05:20:29.785Z,11.800
2024-01-20T05:21:23.842Z,11.300
2024-01-20T05:22:19.928Z,11.650
2024-01-20T05:23:47.410Z,11.750
2024-01-20T05:24:27.355Z,11.700
2024-01-20T05:25:21.542Z,11.250
2024-01-20T05:26:25.470Z,11.100
2024-01-20T05:27:27.488Z,11.150
2024-01-20T05:28:23.455Z,12.100
2024-01-20T05:29:19.449Z,11.600
2024-01-20T05:30:20.439Z,11.700
2024-01-20T05:31:25.884Z,11.600
2024-01-20T05:32:21.746Z,11.700
2024-01-20T05:33:31.249Z,11.900
2024-01-20T05:34:22.717Z,11.400
2024-01-20T05:35:25.464Z,11.350
2024-01-20T05:36:19.583Z,12.000
2024-01-20T05:37:27.933Z,11.850
2024-01-20T05:38:25.384Z,10.700
2024-01-20T05:39:21.490Z,11.900
2024-01-20T05:40:33.837Z,11.800
2024-01-20T05:41:29.432Z,11.750
2024-01-20T05:42:19.755Z,11.700
2024-01-20T05:43:21.533Z,12.050
2024-01-20T05:44:33.626Z,11.850
2024-01-20T05:45:22.673Z,11.800
2024-01-20T05:46:21.455Z,11.750
2024-01-20T05:47:39.144Z,11.700
2024-01-20T05:48:27.919Z,11.600
2024-01-20T05:49:23.935Z,11.750
2024-01-20T05:50:20.911Z,11.600
2024-01-20T05:51:34.648Z,11.450
2024-01-20T05:52:26.148Z,11.650
2024-01-20T05:53:23.246Z,11.900
2024-01-20T05:54:43.132Z,11.350
2024-01-20T05:55:27.652Z,11.000
2024-01-20T05:56:23.815Z,11.600
2024-01-20T05:57:22.343Z,11.600
2024-01-20T05:58:32.753Z,11.800
2024-01-20T05:59:26.006Z,11.250
2024-01-20T06:00:22.373Z,11.500
2024-01-20T06:01:48.562Z,12.000
2024-01-20T06:02:29.004Z,11.600
2024-01-20T06:03:34.276Z,11.800
2024-01-20T06:04:19.376Z,12.400
2024-01-20T06:05:29.744Z,11.500
2024-01-20T06:06:26.339Z,12.050
2024-01-20T06:07:22.539Z,11.700
2024-01-20T06:08:21.213Z,11.300
2024-01-20T06:09:29.233Z,11.300
2024-01-20T06:10:23.639Z,10.900
2024-01-20T06:11:19.854Z,11.550
2024-01-20T06:12:24.696Z,11.450
2024-01-20T06:13:25.614Z,11.850
2024-01-20T06:14:23.292Z,11.500
2024-01-20T06:15:23.548Z,11.500
2024-01-20T06:16:28.028Z,12.000
2024-01-20T06:17:25.189Z,11.200
2024-01-20T06:18:19.984Z,11.800
2024-01-20T06:19:31.680Z,11.400
2024-01-20T06:20:21.623Z,11.900
2024-01-20T06:21:21.722Z,11.750
2024-01-20T06:22:27.921Z,11.750
2024-01-20T06:23:21.353Z,11.200
2024-01-20T06:24:25.322Z,11.200
2024-01-20T06:25:19.610Z,10.800
2024-01-20T06:26:31.587Z,11.350
2024-01-20T06:27:26.805Z,11.100
2024-01-20T06:28:23.023Z,10.800
2024-01-20T06:29:48.085Z,11.300
2024-01-20T06:30:29.252Z,11.400
2024-01-20T06:31:23.707Z,11.500
2024-01-20T06:32:19.627Z,12.300
2024-01-20T06:33:31.556Z,11.200
2024-01-20T06:34:26.274Z,11.800
2024-01-20T06:35:21.495Z,10.800
2024-01-20T06:36:35.488Z,11.700
2024-01-20T06:37:31.043Z,11.400
2024-01-20T06:38:23.535Z,11.050
2024-01-20T06:39:19.701Z,10.500
2024-01-20T06:40:35.425Z,11.100
2024-01-20T06:41:25.367Z,10.600
2024-01-20T06:42:23.664Z,11.750
2024-01-20T06:43:41.451Z,11.100
2024-01-20T06:44:28.432Z,10.800
2024-01-20T06:45:25.510Z,11.200
2024-01-20T06:46:21.211Z,10.900
2024-01-20T06:47:33.138Z,11.150
2024-01-20T06:48:25.878Z,11.000
2024-01-20T06:49:22.877Z,10.600
2024-01-20T06:50:23.813Z,11.300
2024-01-20T06:51:30.366Z,11.100
2024-01-20T06:52:23.962Z,10.800
2024-01-20T06:53:24.030Z,11.700
2024-01-20T06:54:33.428Z,11.300
2024-01-20T06:55:26.572Z,11.300
2024-01-20T06:56:24.617Z,11.000
2024-01-20T06:57:28.778Z,11.250
2024-01-20T06:58:19.759Z,11.500
2024-01-20T06:59:24.280Z,11.400
2024-01-20T07:00:20.798Z,10.800
2024-01-20T07:01:19.805Z,11.200
2024-01-20T07:02:27.146Z,10.600
2024-01-20T07:03:21.965Z,10.900
2024-01-20T07:04:31.046Z,11.200
2024-01-20T07:05:25.554Z,11.250
2024-01-20T07:06:23.808Z,10.850
2024-01-20T07:07:20.861Z,11.600
2024-01-20T07:08:25.265Z,11.250
2024-01-20T07:09:26.449Z,11.700
2024-01-20T07:10:22.871Z,11.700
2024-01-20T07:11:31.497Z,11.350
2024-01-20T07:12:31.488Z,10.800
2024-01-20T07:13:25.431Z,11.000
2024-01-20T07:14:19.798Z,10.700
2024-01-20T07:15:33.320Z,10.900
2024-01-20T07:16:20.362Z,10.300
2024-01-20T07:17:21.905Z,10.100
2024-01-20T07:18:41.721Z,10.450
2024-01-20T07:19:27.610Z,11.400
2024-01-20T07:20:27.468Z,11.450
2024-01-20T07:21:19.913Z,10.700
2024-01-20T07:22:31.385Z,11.350
2024-01-20T07:23:28.463Z,11.650
2024-01-20T07:24:22.882Z,11.400
2024-01-20T07:25:46.865Z,11.300
2024-01-20T07:26:28.708Z,11.100
2024-01-20T07:27:23.852Z,11.350
2024-01-20T07:28:19.959Z,11.500
2024-01-20T07:29:32.365Z,11.400
2024-01-20T07:30:30.405Z,11.200
2024-01-20T07:31:21.604Z,11.150
2024-01-20T07:32:50.123Z,11.400
2024-01-20T07:33:29.799Z,11.000
2024-01-20T07:34:24.780Z,10.850
2024-01-20T07:35:19.666Z,11.200
2024-01-20T07:36:22.068Z,11.400
2024-01-20T07:37:25.411Z,11.250
2024-01-20T07:38:22.822Z,10.500
2024-01-20T07:39:47.918Z,10.850
2024-01-20T07:40:29.871Z,10.800
2024-01-20T07:41:23.468Z,10.500
2024-01-20T07:42:21.696Z,11.300
2024-01-20T07:43:25.742Z,11.150
2024-01-20T07:44:25.932Z,11.550
2024-01-20T07:45:22.074Z,11.300
2024-01-20T07:46:25.198Z,11.350
2024-01-20T07:47:30.029Z,10.900
2024-01-20T07:48:24.224Z,10.300
2024-01-20T07:49:20.858Z,10.950
2024-01-20T07:50:33.494Z,10.350
2024-01-20T07:51:21.831Z,10.900
2024-01-20T07:52:22.171Z,11.400
2024-01-20T07:53:27.627Z,10.700
2024-01-20T07:54:21.020Z,11.200
2024-01-20T07:55:24.765Z,10.800
2024-01-20T07:56:21.659Z,10.300
2024-01-20T07:57:32.562Z,10.800
2024-01-20T07:58:40.029Z,10.500
2024-01-20T07:59:23.411Z,10.900
2024-01-20T08:00:32.418Z,11.500
2024-01-20T08:01:23.711Z,11.450
2024-01-20T08:02:26.836Z,11.500
2024-01-20T08:03:19.967Z,12.150
2024-01-20T08:04:31.867Z,11.800
2024-01-20T08:05:25.787Z,11.750
2024-01-20T08:06:23.095Z,10.700
2024-01-20T08:07:34.444Z,11.400
2024-01-20T08:08:27.657Z,10.800
2024-01-20T08:09:21.985Z,10.800
2024-01-20T08:10:20.048Z,11.150
2024-01-20T08:11:31.686Z,11.300
2024-01-20T08:12:27.682Z,11.200
2024-01-20T08:13:22.498Z,10.400
2024-01-20T08:14:21.473Z,11.600
2024-01-20T08:15:27.644Z,11.250
2024-01-20T08:16:24.279Z,11.500
2024-01-20T08:17:21.129Z,11.750
2024-01-20T08:18:32.890Z,10.700
2024-01-20T08:19:25.715Z,10.900
2024-01-20T08:20:23.524Z,11.300
2024-01-20T08:21:24.328Z,11.350
2024-01-20T08:22:27.545Z,11.300
2024-01-20T08:23:23.734Z,11.100
2024-01-20T08:24:21.448Z,11.250
2024-01-20T08:25:34.908Z,11.000
2024-01-20T08:26:25.672Z,10.700
2024-01-20T08:27:23.602Z,11.350
2024-01-20T08:28:30.704Z,11.000
2024-01-20T08:29:21.781Z,11.000
2024-01-20T08:30:23.703Z,11.500
2024-01-20T08:31:19.764Z,11.500
2024-01-20T08:32:31.816Z,11.300
2024-01-20T08:33:28.046Z,11.000
2024-01-20T08:34:22.420Z,11.150
2024-01-20T08:35:33.876Z,11.400
2024-01-20T08:36:30.485Z,11.500
2024-01-20T08:37:23.707Z,11.400
2024-01-20T08:38:19.717Z,10.800
2024-01-20T08:39:22.715Z,10.850
2024-01-20T08:40:26.113Z,10.800
2024-01-20T08:41:21.655Z,10.750
2024-01-20T08:42:46.905Z,11.000
2024-01-20T08:43:34.420Z,10.550
2024-01-20T08:44:24.755Z,11.700
2024-01-20T08:45:21.130Z,10.850
2024-01-20T08:46:28.035Z,10.700
2024-01-20T08:47:19.752Z,10.650
2024-01-20T08:48:22.180Z,10.400
2024-01-20T08:49:34.862Z,10.850
2024-01-20T08:50:30.665Z,10.300
2024-01-20T08:51:25.508Z,11.300
2024-01-20T08:52:20.460Z,10.500
2024-01-20T08:53:29.862Z,10.450
2024-01-20T08:54:26.030Z,10.950
2024-01-20T08:55:22.045Z,10.700
2024-01-20T08:56:34.870Z,11.500
2024-01-20T08:57:31.390Z,11.000
2024-01-20T08:58:24.119Z,11.400
2024-01-20T08:59:22.183Z,10.900
2024-01-20T09:00:30.462Z,10.950
2024-01-20T09:01:30.541Z,10.400
2024-01-20T09:02:23.630Z,10.300
2024-01-20T09:03:34.097Z,11.000
2024-01-20T09:04:31.771Z,10.850
2024-01-20T09:05:23.965Z,10.400
2024-01-20T09:06:20.191Z,10.550
2024-01-20T09:07:21.904Z,10.600
2024-01-20T09:08:27.483Z,10.800
2024-01-20T09:09:25.477Z,11.500
2024-01-20T09:10:32.974Z,11.050
2024-01-20T09:11:27.908Z,10.700
2024-01-20T09:12:25.898Z,10.800
2024-01-20T09:13:20.123Z,10.250
2024-01-20T09:14:26.049Z,10.400
2024-01-20T09:15:25.804Z,10.750
2024-01-20T09:16:21.873Z,11.400
2024-01-20T09:17:23.848Z,10.400
2024-01-20T09:18:32.100Z,10.550
2024-01-20T09:19:23.877Z,10.700
2024-01-20T09:20:22.415Z,11.200
2024-01-20T09:21:31.510Z,11.150
2024-01-20T09:22:25.800Z,11.200
2024-01-20T09:23:21.958Z,10.850
2024-01-20T09:24:26.196Z,10.200
2024-01-20T09:25:30.707Z,10.500
2024-01-20T09:26:23.800Z,10.500
2024-01-20T09:27:21.702Z,11.200
2024-01-20T09:28:32.651Z,10.400
2024-01-20T09:29:27.208Z,10.200
2024-01-20T09:30:23.262Z,10.650
2024-01-20T09:31:33.049Z,10.850
2024-01-20T09:32:23.997Z,10.600
2024-01-20T09:33:24.228Z,10.350
2024-01-20T09:34:20.860Z,10.400
2024-01-20T09:35:33.511Z,10.350
2024-01-20T09:36:27.533Z,10.300
2024-01-20T09:37:22.622Z,10.200
2024-01-20T09:38:34.408Z,10.450
2024-01-20T09:39:32.997Z,10.150
2024-01-20T09:40:19.674Z,10.500
2024-01-20T09:41:19.722Z,10.200
2024-01-20T09:42:32.637Z,9.700
2024-01-20T09:43:26.106Z,10.000
2024-01-20T09:44:22.237Z,10.750
2024-01-20T09:45:22.954Z,10.350
2024-01-20T09:46:30.605Z,10.900
2024-01-20T09:47:24.129Z,10.500
2024-01-20T09:48:21.219Z,10.800
2024-01-20T09:49:32.018Z,10.250
2024-01-20T09:50:26.774Z,9.750
2024-01-20T09:51:22.606Z,10.400
2024-01-20T09:52:26.096Z,11.200
2024-01-20T09:53:27.960Z,11.200
2024-01-20T09:54:24.154Z,10.600
2024-01-20T09:55:21.303Z,10.400
2024-01-20T09:56:34.550Z,10.650
2024-01-20T09:57:27.091Z,10.500
2024-01-20T09:58:26.124Z,10.500
2024-01-20T09:59:33.856Z,10.050
2024-01-20T10:00:23.174Z,9.800
2024-01-20T10:01:23.958Z,9.950
2024-01-20T10:02:20.129Z,9.800
2024-01-20T10:03:33.270Z,10.200
2024-01-20T10:04:25.996Z,10.200
2024-01-20T10:05:24.052Z,9.950
2024-01-20T10:06:35.785Z,10.100
2024-01-20T10:07:28.937Z,9.900
2024-01-20T10:08:20.246Z,10.250
2024-01-20T10:09:19.958Z,10.900
2024-01-20T10:10:23.466Z,10.300
2024-01-20T10:11:25.795Z,9.900
2024-01-20T10:12:23.091Z,10.800
2024-01-20T10:13:34.879Z,10.300
2024-01-20T10:14:27.689Z,10.800
2024-01-20T10:15:28.873Z,10.550
2024-01-20T10:16:22.646Z,10.500
2024-01-20T10:17:26.207Z,10.650
2024-01-20T10:18:26.227Z,11.000
2024-01-20T10:19:22.447Z,10.400
2024-01-20T10:20:32.174Z,9.800
2024-01-20T10:21:32.168Z,10.150
2024-01-20T10:22:24.046Z,10.400
2024-01-20T10:23:23.853Z,10.400
2024-01-20T10:24:29.693Z,11.150
2024-01-20T10:25:24.423Z,10.800
2024-01-20T10:26:21.852Z,10.900
2024-01-20T10:27:32.271Z,10.300
2024-01-20T10:28:31.472Z,10.500
2024-01-20T10:29:24.575Z,10.300
2024-01-20T10:30:21.395Z,10.950
2024-01-20T10:31:19.104Z,10.800
2024-01-20T10:32:26.342Z,11.000
2024-01-20T10:33:22.111Z,10.550
2024-01-20T10:34:32.230Z,11.200
2024-01-20T10:35:32.361Z,10.800
2024-01-20T10:36:25.159Z,10.600
2024-01-20T10:37:21.152Z,10.600
2024-01-20T10:38:23.861Z,10.000
2024-01-20T10:39:26.413Z,10.200
2024-01-20T10:40:23.254Z,10.150
2024-01-20T10:41:33.073Z,10.200
2024-01-20T10:42:33.754Z,10.300
2024-01-20T10:43:25.107Z,11.100
2024-01-20T10:44:21.426Z,11.200
2024-01-20T10:45:28.995Z,10.850
2024-01-20T10:46:22.282Z,10.600
2024-01-20T10:47:22.323Z,10.600
2024-01-20T10:48:20.861Z,10.050
2024-01-20T10:49:30.057Z,9.800
2024-01-20T10:50:24.119Z,11.300
2024-01-20T10:51:21.754Z,10.100
2024-01-20T10:52:33.567Z,10.300
2024-01-20T10:53:26.130Z,10.300
2024-01-20T10:54:22.992Z,10.400
2024-01-20T10:55:25.352Z,10.700
2024-01-20T10:56:30.558Z,10.800
2024-01-20T10:57:24.178Z,10.950
2024-01-20T10:58:21.933Z,10.700
2024-01-20T10:59:31.759Z,10.200
2024-01-20T11:00:26.044Z,10.300
2024-01-20T11:01:36.337Z,10.550
2024-01-20T11:02:31.906Z,10.200
2024-01-20T11:03:23.524Z,10.250
2024-01-20T11:04:24.260Z,10.200
2024-01-20T11:05:22.191Z,10.400
2024-01-20T11:06:30.780Z,11.050
2024-01-20T11:07:26.192Z,11.200
2024-01-20T11:08:23.770Z,10.500
2024-01-20T11:09:19.384Z,9.800
2024-01-20T11:10:31.755Z,11.000
2024-01-20T11:11:24.049Z,10.650
2024-01-20T11:12:20.166Z,10.300
2024-01-20T11:13:32.402Z,10.500
2024-01-20T11:14:26.975Z,10.000
2024-01-20T11:15:32.225Z,10.550
2024-01-20T11:16:23.438Z,10.600
2024-01-20T11:17:30.139Z,10.300
2024-01-20T11:18:24.292Z,10.450
2024-01-20T11:19:22.199Z,9.700
2024-01-20T11:20:26.170Z,11.350
2024-01-20T11:21:28.572Z,9.900
2024-01-20T11:22:22.031Z,10.100
2024-01-20T11:23:27.927Z,10.400
2024-01-20T11:24:21.772Z,10.400
2024-01-20T11:25:26.796Z,9.800
2024-01-20T11:26:21.183Z,10.300
2024-01-20T11:27:32.858Z,10.500
2024-01-20T11:28:26.780Z,10.550
2024-01-20T11:29:26.012Z,10.300
2024-01-20T11:30:34.086Z,10.250
2024-01-20T11:31:26.498Z,10.300
2024-01-20T11:32:31.850Z,10.850
2024-01-20T11:33:21.131Z,10.300
2024-01-20T11:34:34.144Z,9.350
2024-01-20T11:35:26.385Z,9.700
2024-01-20T11:36:23.997Z,9.800
2024-01-20T11:37:34.082Z,10.550
2024-01-20T11:38:32.049Z,10.900
2024-01-20T11:39:24.984Z,10.300
2024-01-20T11:40:20.841Z,10.300
2024-01-20T11:41:21.482Z,10.400
2024-01-20T11:42:26.271Z,10.900
2024-01-20T11:44:32.100Z,10.200
2024-01-20T11:45:29.989Z,10.200
2024-01-20T11:46:26.459Z,10.000
2024-01-20T11:47:20.423Z,10.550
2024-01-20T11:48:24.707Z,10.700
2024-01-20T11:49:40.482Z,10.850
2024-01-20T11:50:22.258Z,10.850
2024-01-20T11:51:32.230Z,10.100
2024-01-20T11:52:29.229Z,10.350
2024-01-20T11:53:24.212Z,10.400
2024-01-20T11:54:22.218Z,10.900
2024-01-20T11:55:31.672Z,11.250
2024-01-20T11:56:22.181Z,10.900
2024-01-20T11:57:23.178Z,10.300
2024-01-20T11:58:33.829Z,10.450
2024-01-20T11:59:28.784Z,10.700
2024-01-20T12:00:36.578Z,10.550
2024-01-20T12:01:20.445Z,11.600
2024-01-20T12:02:21.418Z,11.000
2024-01-20T12:03:26.209Z,10.350
2024-01-20T12:04:23.255Z,11.400
2024-01-20T12:05:34.370Z,9.850
2024-01-20T12:06:28.249Z,10.800
2024-01-20T12:07:26.159Z,10.900
2024-01-20T12:08:21.021Z,11.200
2024-01-20T12:09:26.017Z,11.150
2024-01-20T12:10:26.074Z,11.350
2024-01-20T12:11:36.463Z,10.100
2024-01-20T12:12:33.489Z,10.800
2024-01-20T12:13:28.930Z,11.200
2024-01-20T12:14:39.328Z,10.800
2024-01-20T12:15:22.211Z,11.000
2024-01-20T12:16:31.539Z,11.350
2024-01-20T12:17:22.456Z,10.700
2024-01-20T12:18:22.264Z,10.700
2024-01-20T12:19:19.288Z,11.100
2024-01-20T12:20:29.858Z,10.700
2024-01-20T12:21:25.321Z,11.900
2024-01-20T12:22:21.856Z,11.300
2024-01-20T12:23:36.244Z,11.100
2024-01-20T12:24:26.477Z,10.800
2024-01-20T12:25:19.496Z,11.050
2024-01-20T12:26:23.447Z,11.000
2024-01-20T12:27:30.361Z,9.800
2024-01-20T12:28:23.974Z,10.150
2024-01-20T12:29:22.050Z,11.000
2024-01-20T12:30:33.182Z,11.350
2024-01-20T12:31:26.367Z,10.600
2024-01-20T12:32:23.613Z,10.600
2024-01-20T12:33:28.363Z,10.400
2024-01-20T12:34:21.458Z,10.850
2024-01-20T12:35:38.992Z,10.700
2024-01-20T12:36:35.789Z,10.700
2024-01-20T12:37:42.676Z,10.300
2024-01-20T12:38:37.143Z,10.650
2024-01-20T12:39:25.433Z,10.600
2024-01-20T12:40:20.885Z,10.550
2024-01-20T12:41:26.128Z,10.600
2024-01-20T12:42:41.581Z,10.750
2024-01-20T12:43:21.335Z,11.300
2024-01-20T12:44:47.819Z,11.650
2024-01-20T12:45:28.824Z,10.600
2024-01-20T12:46:22.399Z,10.700
2024-01-20T12:47:25.363Z,10.600
2024-01-20T12:48:32.606Z,10.500
2024-01-20T12:49:21.634Z,10.900
2024-01-20T12:50:20.614Z,11.350
2024-01-20T12:51:51.329Z,11.400